TimeEST,TemperatureF,Dew PointF,Humidity,Sea Level PressureIn,VisibilityMPH,Wind Direction,Wind SpeedMPH,Gust SpeedMPH,PrecipitationIn,Events,Conditions,WindDirDegrees,DateUTC
12:53 AM,41.0,28.0,60,30.05,10.0,Calm,Calm,-,N/A,,Overcast,0,2012-02-15 05:53:00
1:53 AM,37.9,28.9,70,30.06,10.0,Calm,Calm,-,N/A,,Overcast,0,2012-02-15 06:53:00
2:53 AM,37.9,28.9,70,30.08,10.0,SSW,3.5,-,N/A,,Overcast,200,2012-02-15 07:53:00
3:53 AM,41.0,30.9,67,30.09,10.0,West,6.9,-,N/A,,Overcast,280,2012-02-15 08:53:00
4:53 AM,39.0,30.0,70,30.12,10.0,Calm,Calm,-,N/A,,Overcast,0,2012-02-15 09:53:00
5:53 AM,41.0,30.9,67,30.15,10.0,West,11.5,-,N/A,,Mostly Cloudy,280,2012-02-15 10:53:00
6:53 AM,41.0,30.9,67,30.17,10.0,WNW,6.9,-,N/A,,Overcast,300,2012-02-15 11:53:00
7:53 AM,41.0,30.9,67,30.22,10.0,NW,8.1,-,N/A,,Overcast,310,2012-02-15 12:53:00
8:53 AM,42.1,30.0,62,30.25,10.0,NW,10.4,-,N/A,,Overcast,310,2012-02-15 13:53:00
9:53 AM,44.1,28.9,55,30.26,10.0,NNW,11.5,-,N/A,,Mostly Cloudy,330,2012-02-15 14:53:00
10:53 AM,46.0,28.0,50,30.26,10.0,NW,11.5,-,N/A,,Clear,310,2012-02-15 15:53:00
11:53 AM,46.9,27.0,46,30.27,1.8,West,5.8,-,N/A,,Haze,280,2012-02-15 16:53:00
12:00 PM,46.4,26.6,46,30.26,3.0,WNW,9.2,16.1,N/A,,Haze,290,2012-02-15 17:00:00
12:53 PM,48.9,27.0,43,30.26,10.0,NNW,6.9,-,N/A,,Clear,340,2012-02-15 17:53:00
1:53 PM,50.0,27.0,41,30.23,10.0,NW,10.4,-,N/A,,Clear,320,2012-02-15 18:53:00
2:27 PM,50.0,26.6,40,30.23,1.8,Variable,4.6,-,N/A,,Haze,0,2012-02-15 19:27:00
2:35 PM,51.8,26.6,38,30.23,3.0,NW,8.1,-,N/A,,Haze,320,2012-02-15 19:35:00
2:53 PM,51.1,27.0,39,30.24,10.0,West,5.8,-,N/A,,Clear,260,2012-02-15 19:53:00
3:53 PM,50.0,26.1,39,30.24,10.0,Calm,Calm,-,N/A,,Clear,0,2012-02-15 20:53:00
4:53 PM,51.1,26.1,38,30.25,10.0,NW,3.5,-,N/A,,Clear,320,2012-02-15 21:53:00
5:53 PM,46.9,26.1,44,30.27,10.0,Calm,Calm,-,N/A,,Clear,0,2012-02-15 22:53:00
6:53 PM,41.0,27.0,57,30.27,10.0,Calm,Calm,-,N/A,,Clear,0,2012-02-15 23:53:00
7:53 PM,39.9,27.0,60,30.27,10.0,NE,3.5,-,N/A,,Clear,40,2012-02-16 00:53:00
8:53 PM,39.9,27.0,60,30.27,10.0,Calm,Calm,-,N/A,,Clear,0,2012-02-16 01:53:00
9:53 PM,35.1,27.0,72,30.29,10.0,WSW,3.5,-,N/A,,Clear,240,2012-02-16 02:53:00
10:53 PM,37.0,28.0,70,30.28,10.0,Calm,Calm,-,N/A,,Clear,0,2012-02-16 03:53:00
11:53 PM,37.0,30.0,76,30.27,10.0,Calm,Calm,-,N/A,,Overcast,0,2012-02-16 04:53:00